createdAt,value
2019-03-10T00:00:48.213Z,3.70
2019-03-10T00:01:53.725Z,3.80
2019-03-10T00:02:59.248Z,4.10
2019-03-10T00:04:04.740Z,4.10
2019-03-10T00:05:10.259Z,3.90
2019-03-10T00:06:15.756Z,4.00
2019-03-10T00:07:21.271Z,3.70
2019-03-10T00:08:26.781Z,3.70
2019-03-10T00:09:32.298Z,4.00
2019-03-10T00:10:37.815Z,4.10
2019-03-10T00:11:43.306Z,4.30
2019-03-10T00:12:48.815Z,3.60
2019-03-10T00:13:54.325Z,3.80
2019-03-10T00:14:59.840Z,4.10
2019-03-10T00:16:05.348Z,3.90
2019-03-10T00:17:10.852Z,4.10
2019-03-10T00:18:16.363Z,3.90
2019-03-10T00:19:21.879Z,3.90
2019-03-10T00:20:27.378Z,4.10
2019-03-10T00:21:32.887Z,4.40
2019-03-10T00:22:38.395Z,4.10
2019-03-10T00:23:43.906Z,3.90
2019-03-10T00:24:49.418Z,4.50
2019-03-10T00:25:54.955Z,4.10
2019-03-10T00:27:00.445Z,4.20
2019-03-10T00:28:05.962Z,4.60
2019-03-10T00:29:11.458Z,3.90
2019-03-10T00:30:16.964Z,4.20
2019-03-10T00:31:22.473Z,4.50
2019-03-10T00:32:27.980Z,4.80
2019-03-10T00:33:33.495Z,3.80
2019-03-10T00:34:39.000Z,4.10
2019-03-10T00:35:44.506Z,4.10
2019-03-10T00:36:50.019Z,4.70
2019-03-10T00:37:55.528Z,4.50
2019-03-10T00:39:01.037Z,5.20
2019-03-10T00:40:06.549Z,4.70
2019-03-10T00:41:12.060Z,4.30
2019-03-10T00:42:17.562Z,4.80
2019-03-10T00:43:23.071Z,4.60
2019-03-10T00:44:28.583Z,4.30
2019-03-10T00:45:34.091Z,4.50
2019-03-10T00:46:39.600Z,4.40
2019-03-10T00:47:45.114Z,4.30
2019-03-10T00:48:50.630Z,4.80
2019-03-10T00:49:56.128Z,4.60
2019-03-10T00:51:01.646Z,4.90
2019-03-10T00:52:07.155Z,4.50
2019-03-10T00:53:12.660Z,4.90
2019-03-10T00:54:18.168Z,5.10
2019-03-10T00:55:23.679Z,4.90
2019-03-10T00:56:29.194Z,5.00
2019-03-10T00:57:34.697Z,5.10
2019-03-10T00:58:40.203Z,4.80
2019-03-10T00:59:45.709Z,4.70
2019-03-10T01:00:51.225Z,5.20
2019-03-10T01:01:56.733Z,4.90
2019-03-10T01:03:02.238Z,5.70
2019-03-10T01:04:07.755Z,5.80
2019-03-10T01:05:13.258Z,5.00
2019-03-10T01:06:18.775Z,5.00
2019-03-10T01:07:24.280Z,5.00
2019-03-10T01:08:29.790Z,6.00
2019-03-10T01:09:35.295Z,5.00
2019-03-10T01:10:40.821Z,5.50
2019-03-10T01:11:46.314Z,5.50
2019-03-10T01:12:51.829Z,5.50
2019-03-10T01:13:57.331Z,5.60
2019-03-10T01:15:02.848Z,5.20
2019-03-10T01:16:08.353Z,6.00
2019-03-10T01:17:13.863Z,5.30
2019-03-10T01:18:19.371Z,5.00
2019-03-10T01:19:24.880Z,5.50
2019-03-10T01:20:30.390Z,5.70
2019-03-10T01:21:35.901Z,5.40
2019-03-10T01:22:41.416Z,6.00
2019-03-10T01:23:46.919Z,5.50
2019-03-10T01:24:52.426Z,5.80
2019-03-10T01:25:57.936Z,6.10
2019-03-10T01:27:03.445Z,5.60
2019-03-10T01:28:08.958Z,5.80
2019-03-10T01:29:14.471Z,5.90
2019-03-10T01:30:19.980Z,5.90
2019-03-10T01:31:25.479Z,5.80
2019-03-10T01:32:30.991Z,6.20
2019-03-10T01:33:36.503Z,5.90
2019-03-10T01:34:42.008Z,6.10
2019-03-10T01:35:47.515Z,5.90
2019-03-10T01:36:53.027Z,5.70
2019-03-10T01:37:58.549Z,6.00
2019-03-10T01:39:04.045Z,6.00
2019-03-10T01:40:09.557Z,6.20
2019-03-10T01:41:15.064Z,6.40
2019-03-10T01:42:20.574Z,5.60
2019-03-10T01:43:26.080Z,6.50
2019-03-10T01:44:31.596Z,6.10
2019-03-10T01:45:37.100Z,6.50
2019-03-10T01:46:42.618Z,6.30
2019-03-10T01:47:48.135Z,6.30
2019-03-10T01:48:53.626Z,6.70
2019-03-10T01:49:59.139Z,6.00
2019-03-10T01:51:04.649Z,6.30
2019-03-10T01:52:10.158Z,6.60
2019-03-10T01:53:25.018Z,6.80
2019-03-10T01:54:21.264Z,6.30
2019-03-10T01:55:26.687Z,6.90
2019-03-10T01:56:32.194Z,7.20
2019-03-10T01:57:37.706Z,6.90
2019-03-10T01:58:43.212Z,7.40
2019-03-10T01:59:48.722Z,7.30
2019-03-10T02:00:54.231Z,7.10
2019-03-10T02:01:59.743Z,7.00
2019-03-10T02:03:05.254Z,6.40
2019-03-10T02:04:10.750Z,7.40
2019-03-10T02:05:16.286Z,6.70
2019-03-10T02:06:21.776Z,6.50
2019-03-10T02:07:27.290Z,6.80
2019-03-10T02:08:32.796Z,6.90
2019-03-10T02:09:38.308Z,7.00
2019-03-10T02:10:43.814Z,6.60
2019-03-10T02:11:49.319Z,6.70
2019-03-10T02:12:54.833Z,6.90
2019-03-10T02:14:00.343Z,6.50
2019-03-10T02:15:05.852Z,6.50
2019-03-10T02:16:11.360Z,6.80
2019-03-10T02:17:16.870Z,6.90
2019-03-10T02:18:22.377Z,6.10
2019-03-10T02:19:27.890Z,6.40
2019-03-10T02:20:33.396Z,6.40
2019-03-10T02:21:38.908Z,6.40
2019-03-10T02:22:44.413Z,6.50
2019-03-10T02:23:49.924Z,7.10
2019-03-10T02:24:55.436Z,6.50
2019-03-10T02:26:00.942Z,6.70
2019-03-10T02:27:06.454Z,6.50
2019-03-10T02:28:11.965Z,6.50
2019-03-10T02:29:17.471Z,6.40
2019-03-10T02:30:22.983Z,6.40
2019-03-10T02:31:28.492Z,7.10
2019-03-10T02:32:34.006Z,6.90
2019-03-10T02:33:39.511Z,6.40
2019-03-10T02:34:45.019Z,6.30
2019-03-10T02:35:50.529Z,7.00
2019-03-10T02:36:56.038Z,6.60
2019-03-10T02:38:01.550Z,7.00
2019-03-10T02:39:07.052Z,6.30
2019-03-10T02:40:12.562Z,6.60
2019-03-10T02:41:18.113Z,6.20
2019-03-10T02:42:23.581Z,6.10
2019-03-10T02:43:29.090Z,6.40
2019-03-10T02:44:34.601Z,6.40
2019-03-10T02:45:40.111Z,6.30
2019-03-10T02:46:45.625Z,6.50
2019-03-10T02:47:51.133Z,6.20
2019-03-10T02:48:56.639Z,6.30
2019-03-10T02:50:02.148Z,5.90
2019-03-10T02:51:07.653Z,6.80
2019-03-10T02:52:13.168Z,7.00
2019-03-10T02:53:18.674Z,6.30
2019-03-10T02:54:24.189Z,6.70
2019-03-10T02:55:29.694Z,6.80
2019-03-10T02:56:35.228Z,7.40
2019-03-10T02:57:40.722Z,6.30
2019-03-10T02:58:46.222Z,6.60
2019-03-10T02:59:51.738Z,7.30
2019-03-10T03:00:57.239Z,6.10
2019-03-10T03:02:02.749Z,6.30
2019-03-10T03:03:08.264Z,6.30
2019-03-10T03:04:13.769Z,6.50
2019-03-10T03:05:19.277Z,5.80
2019-03-10T03:06:24.786Z,6.30
2019-03-10T03:07:30.294Z,7.00
2019-03-10T03:08:35.836Z,6.10
2019-03-10T03:09:41.312Z,6.30
2019-03-10T03:10:46.830Z,6.10
2019-03-10T03:11:52.336Z,6.30
2019-03-10T03:12:57.853Z,6.30
2019-03-10T03:14:03.352Z,5.90
2019-03-10T03:15:08.867Z,6.30
2019-03-10T03:16:14.368Z,5.90
2019-03-10T03:17:19.879Z,6.10
2019-03-10T03:18:25.391Z,6.30
2019-03-10T03:19:30.899Z,5.90
2019-03-10T03:20:36.419Z,6.00
2019-03-10T03:21:43.680Z,6.00
2019-03-10T03:22:47.432Z,6.60
2019-03-10T03:23:53.009Z,5.60
2019-03-10T03:24:58.447Z,5.70
2019-03-10T03:26:04.102Z,5.10
2019-03-10T03:27:09.460Z,5.90
2019-03-10T03:28:14.973Z,5.60
2019-03-10T03:29:20.496Z,5.50
2019-03-10T03:30:26.005Z,5.80
2019-03-10T03:31:31.501Z,5.90
2019-03-10T03:32:37.011Z,6.10
2019-03-10T03:33:42.521Z,6.50
2019-03-10T03:34:48.033Z,6.00
2019-03-10T03:35:53.543Z,6.20
2019-03-10T03:36:59.038Z,6.50
2019-03-10T03:38:04.565Z,5.80
2019-03-10T03:39:10.066Z,6.20
2019-03-10T03:40:15.576Z,6.50
2019-03-10T03:41:21.086Z,6.00
2019-03-10T03:42:26.594Z,6.20
2019-03-10T03:43:32.098Z,6.50
2019-03-10T03:44:37.612Z,6.00
2019-03-10T03:45:43.122Z,6.30
2019-03-10T03:46:48.643Z,6.40
2019-03-10T03:47:54.146Z,6.30
2019-03-10T03:48:59.646Z,6.50
2019-03-10T03:50:05.171Z,6.20
2019-03-10T03:51:10.663Z,6.50
2019-03-10T03:52:16.177Z,6.50
2019-03-10T03:53:21.689Z,5.80
2019-03-10T03:54:27.201Z,5.70
2019-03-10T03:55:32.701Z,5.90
2019-03-10T03:56:38.222Z,6.10
2019-03-10T03:57:43.723Z,6.10
2019-03-10T03:58:49.226Z,6.60
2019-03-10T03:59:54.739Z,6.40
2019-03-10T04:01:00.249Z,6.10
2019-03-10T04:02:05.755Z,6.10
2019-03-10T04:03:11.267Z,6.50
2019-03-10T04:04:16.782Z,5.80
2019-03-10T04:05:22.286Z,6.60
2019-03-10T04:06:27.801Z,7.00
2019-03-10T04:07:33.307Z,6.10
2019-03-10T04:08:38.808Z,6.50
2019-03-10T04:09:44.323Z,6.00
2019-03-10T04:10:49.828Z,5.90
2019-03-10T04:11:55.339Z,6.70
2019-03-10T04:13:00.857Z,6.20
2019-03-10T04:14:06.355Z,6.70
2019-03-10T04:15:11.942Z,6.30
2019-03-10T04:16:17.400Z,6.50
2019-03-10T04:17:22.889Z,6.30
2019-03-10T04:18:28.403Z,6.30
2019-03-10T04:19:33.904Z,6.10
2019-03-10T04:20:39.410Z,6.40
2019-03-10T04:21:44.942Z,6.20
2019-03-10T04:22:50.427Z,6.40
2019-03-10T04:23:55.938Z,6.20
2019-03-10T04:25:01.448Z,6.10
2019-03-10T04:26:06.965Z,5.90
2019-03-10T04:27:12.466Z,6.30
2019-03-10T04:28:18.047Z,6.00
2019-03-10T04:29:23.481Z,5.70
2019-03-10T04:30:28.991Z,6.50
2019-03-10T04:31:34.503Z,6.00
2019-03-10T04:32:40.007Z,6.00
2019-03-10T04:33:45.518Z,5.10
2019-03-10T04:34:51.024Z,5.50
2019-03-10T04:35:56.536Z,6.10
2019-03-10T04:37:02.043Z,5.90
2019-03-10T04:38:07.556Z,5.70
2019-03-10T04:39:13.062Z,6.00
2019-03-10T04:40:18.572Z,5.80
2019-03-10T04:41:24.126Z,4.90
2019-03-10T04:42:29.588Z,5.10
2019-03-10T04:43:35.098Z,5.10
2019-03-10T04:44:40.605Z,5.40
2019-03-10T04:45:46.113Z,5.30
2019-03-10T04:46:51.624Z,4.40
2019-03-10T04:47:57.132Z,4.60
2019-03-10T04:49:02.641Z,4.10
2019-03-10T04:50:08.150Z,4.40
2019-03-10T04:51:13.660Z,4.20
2019-03-10T04:52:19.175Z,5.20
2019-03-10T04:53:24.679Z,4.90
2019-03-10T04:54:30.178Z,4.40
2019-03-10T04:55:35.692Z,5.20
2019-03-10T04:56:41.203Z,4.90
2019-03-10T04:57:46.711Z,4.90
2019-03-10T04:58:52.225Z,4.80
2019-03-10T04:59:57.731Z,5.00
2019-03-10T05:01:03.237Z,4.70
2019-03-10T05:02:08.748Z,4.80
2019-03-10T05:03:14.262Z,4.90
2019-03-10T05:04:19.764Z,5.10
2019-03-10T05:05:25.276Z,4.60
2019-03-10T05:06:30.789Z,4.70
2019-03-10T05:07:36.292Z,4.30
2019-03-10T05:08:41.829Z,4.40
2019-03-10T05:09:47.310Z,4.90
2019-03-10T05:10:52.815Z,4.50
2019-03-10T05:11:58.329Z,4.30
2019-03-10T05:13:03.842Z,4.90
2019-03-10T05:14:09.347Z,4.90
2019-03-10T05:15:14.853Z,4.60
2019-03-10T05:16:20.361Z,4.50
2019-03-10T05:17:25.869Z,4.20
2019-03-10T05:18:31.382Z,4.40
2019-03-10T05:19:36.894Z,4.20
2019-03-10T05:20:42.397Z,4.00
2019-03-10T05:21:47.905Z,4.60
2019-03-10T05:22:53.415Z,4.70
2019-03-10T05:23:58.922Z,4.10
2019-03-10T05:25:04.486Z,4.80
2019-03-10T05:26:09.940Z,4.70
2019-03-10T05:27:15.455Z,4.70
2019-03-10T05:28:20.967Z,4.80
2019-03-10T05:29:26.475Z,4.90
2019-03-10T05:30:31.978Z,4.60
2019-03-10T05:31:37.489Z,4.70
2019-03-10T05:32:42.995Z,5.00
2019-03-10T05:33:48.504Z,4.90
2019-03-10T05:34:54.015Z,4.30
2019-03-10T05:35:59.521Z,4.60
2019-03-10T05:37:05.035Z,4.70
2019-03-10T05:38:10.540Z,4.50
2019-03-10T05:39:16.047Z,5.00
2019-03-10T05:40:21.565Z,4.40
2019-03-10T05:41:27.068Z,4.80
2019-03-10T05:42:32.574Z,4.50
2019-03-10T05:43:38.085Z,4.30
2019-03-10T05:44:43.604Z,4.60
2019-03-10T05:45:49.109Z,4.60
2019-03-10T05:46:54.615Z,4.60
2019-03-10T05:48:00.119Z,4.60
2019-03-10T05:49:05.628Z,4.70
2019-03-10T05:50:11.137Z,4.10
2019-03-10T05:51:16.645Z,5.30
2019-03-10T05:52:22.154Z,4.50
2019-03-10T05:53:27.669Z,4.80
2019-03-10T05:54:33.174Z,4.20
2019-03-10T05:55:38.683Z,4.20
2019-03-10T05:56:44.186Z,4.90
2019-03-10T05:57:49.701Z,4.70
2019-03-10T05:58:55.209Z,4.80
2019-03-10T06:00:00.719Z,4.60
2019-03-10T06:01:06.225Z,4.60
2019-03-10T06:02:11.733Z,4.40
2019-03-10T06:03:17.247Z,4.70
2019-03-10T06:04:22.763Z,4.20
2019-03-10T06:05:28.260Z,4.40
2019-03-10T06:06:33.770Z,4.40
2019-03-10T06:07:39.277Z,4.50
2019-03-10T06:08:44.789Z,4.20
2019-03-10T06:09:50.295Z,4.90
2019-03-10T06:10:55.808Z,4.80
2019-03-10T06:12:01.313Z,4.70
2019-03-10T06:13:06.824Z,4.80
2019-03-10T06:14:12.344Z,4.50
2019-03-10T06:15:17.840Z,4.60
2019-03-10T06:16:23.350Z,4.30
2019-03-10T06:17:28.859Z,4.40
2019-03-10T06:18:34.364Z,4.50
2019-03-10T06:19:39.876Z,4.60
2019-03-10T06:20:45.385Z,4.60
2019-03-10T06:21:50.906Z,4.70
2019-03-10T06:22:56.400Z,4.50
2019-03-10T06:24:01.924Z,4.90
2019-03-10T06:25:07.421Z,4.90
2019-03-10T06:26:12.941Z,4.50
2019-03-10T06:27:18.441Z,4.80
2019-03-10T06:28:23.946Z,5.10
2019-03-10T06:29:29.450Z,5.20
2019-03-10T06:30:34.952Z,4.70
2019-03-10T06:31:40.478Z,4.80
2019-03-10T06:32:45.977Z,5.10
2019-03-10T06:33:51.490Z,4.80
2019-03-10T06:34:56.996Z,5.10
2019-03-10T06:36:02.499Z,4.80
2019-03-10T06:37:08.020Z,4.40
2019-03-10T06:38:13.519Z,4.70
2019-03-10T06:39:19.045Z,4.80
2019-03-10T06:40:32.054Z,4.60
2019-03-10T06:41:30.055Z,3.90
2019-03-10T06:42:35.557Z,4.10
2019-03-10T06:43:41.067Z,3.70
2019-03-10T06:44:46.576Z,3.90
2019-03-10T06:45:52.113Z,3.50
2019-03-10T06:46:57.588Z,3.10
2019-03-10T06:48:03.095Z,3.00
2019-03-10T06:49:08.614Z,3.30
2019-03-10T06:50:14.119Z,3.00
2019-03-10T06:51:19.622Z,2.50
2019-03-10T06:52:25.134Z,2.60
2019-03-10T06:53:30.662Z,3.20
2019-03-10T06:54:36.149Z,2.90
2019-03-10T06:55:41.656Z,2.90
2019-03-10T06:56:47.172Z,2.80
2019-03-10T06:57:52.682Z,2.70
2019-03-10T06:58:58.183Z,2.70
2019-03-10T07:00:03.693Z,2.80
2019-03-10T07:01:09.200Z,2.50
2019-03-10T07:02:14.711Z,3.40
2019-03-10T07:03:20.209Z,2.70
2019-03-10T07:04:25.727Z,3.00
2019-03-10T07:05:31.257Z,2.80
2019-03-10T07:06:36.742Z,2.60
2019-03-10T07:07:42.256Z,2.80
2019-03-10T07:08:47.754Z,2.40
2019-03-10T07:09:53.272Z,2.40
2019-03-10T07:10:58.773Z,2.20
2019-03-10T07:12:04.288Z,2.80
2019-03-10T07:13:09.799Z,2.20
2019-03-10T07:14:15.296Z,2.70
2019-03-10T07:15:20.813Z,2.50
2019-03-10T07:16:26.316Z,2.50
2019-03-10T07:17:31.820Z,2.40
2019-03-10T07:18:37.331Z,2.50
2019-03-10T07:19:42.843Z,2.80
2019-03-10T07:20:48.352Z,2.60
2019-03-10T07:21:53.857Z,2.70
2019-03-10T07:22:59.364Z,2.60
2019-03-10T07:24:04.876Z,2.80
2019-03-10T07:25:10.378Z,2.50
2019-03-10T07:26:15.895Z,2.60
2019-03-10T07:27:21.405Z,2.40
2019-03-10T07:28:26.910Z,2.70
2019-03-10T07:29:32.413Z,2.80
2019-03-10T07:30:37.926Z,2.90
2019-03-10T07:31:43.434Z,2.50
2019-03-10T07:32:48.951Z,2.60
2019-03-10T07:33:54.459Z,2.50
2019-03-10T07:34:59.958Z,2.30
2019-03-10T07:36:05.464Z,2.60
2019-03-10T07:37:10.997Z,2.30
2019-03-10T07:38:16.486Z,2.40
2019-03-10T07:39:21.997Z,2.60
2019-03-10T07:40:27.502Z,2.40
2019-03-10T07:41:33.007Z,2.70
2019-03-10T07:42:38.516Z,2.80
2019-03-10T07:43:44.029Z,2.90
2019-03-10T07:44:49.530Z,3.30
2019-03-10T07:45:55.056Z,2.80
2019-03-10T07:47:00.553Z,3.00
2019-03-10T07:48:06.066Z,2.90
2019-03-10T07:49:11.571Z,2.70
2019-03-10T07:50:17.079Z,2.40
2019-03-10T07:51:22.586Z,2.60
2019-03-10T07:52:28.098Z,2.50
2019-03-10T07:53:33.604Z,2.40
2019-03-10T07:54:39.111Z,2.70
2019-03-10T07:55:44.622Z,5.20
2019-03-10T07:56:50.126Z,5.50
2019-03-10T07:57:55.641Z,2.10
2019-03-10T07:59:01.146Z,2.30
2019-03-10T08:00:06.655Z,2.10
2019-03-10T08:01:12.169Z,2.00
2019-03-10T08:02:17.670Z,1.90
2019-03-10T08:03:23.302Z,1.90
2019-03-10T08:04:28.691Z,2.10
2019-03-10T08:05:34.208Z,2.40
2019-03-10T08:06:39.698Z,5.00
2019-03-10T08:07:45.215Z,2.70
2019-03-10T08:08:50.729Z,2.30
2019-03-10T08:09:56.243Z,2.10
2019-03-10T08:11:01.744Z,2.30
2019-03-10T08:12:07.248Z,1.90
2019-03-10T08:13:12.760Z,2.00
2019-03-10T08:14:18.270Z,1.90
2019-03-10T08:15:23.778Z,2.20
2019-03-10T08:16:29.285Z,1.90
2019-03-10T08:17:34.792Z,1.70
2019-03-10T08:18:40.311Z,1.70
2019-03-10T08:19:45.815Z,1.80
2019-03-10T08:20:51.330Z,1.80
2019-03-10T08:21:56.831Z,2.10
2019-03-10T08:23:02.334Z,1.90
2019-03-10T08:24:07.850Z,1.60
2019-03-10T08:25:13.353Z,2.00
2019-03-10T08:26:18.866Z,2.10
2019-03-10T08:27:24.375Z,1.70
2019-03-10T08:28:29.878Z,2.00
2019-03-10T08:29:35.390Z,1.90
2019-03-10T08:30:40.894Z,1.90
2019-03-10T08:31:46.405Z,1.70
2019-03-10T08:32:51.913Z,2.00
2019-03-10T08:33:57.424Z,1.90
2019-03-10T08:35:02.932Z,1.80
2019-03-10T08:36:08.439Z,1.90
2019-03-10T08:37:13.958Z,1.90
2019-03-10T08:38:19.458Z,2.20
2019-03-10T08:39:24.969Z,2.10
2019-03-10T08:40:30.480Z,2.10
2019-03-10T08:41:35.985Z,1.80
2019-03-10T08:42:41.492Z,1.80
2019-03-10T08:43:47.004Z,1.90
2019-03-10T08:44:52.509Z,1.90
2019-03-10T08:45:58.022Z,1.80
2019-03-10T08:47:03.525Z,1.70
2019-03-10T08:48:09.037Z,1.70
2019-03-10T08:49:14.555Z,1.60
2019-03-10T08:50:20.055Z,1.70
2019-03-10T08:51:25.566Z,1.70
2019-03-10T08:52:31.071Z,2.00
2019-03-10T08:53:36.580Z,1.80
2019-03-10T08:54:42.089Z,1.70
2019-03-10T08:55:47.612Z,1.80
2019-03-10T08:56:53.110Z,1.60
2019-03-10T08:57:58.612Z,1.90
2019-03-10T08:59:04.125Z,1.70
2019-03-10T09:00:09.646Z,1.80
2019-03-10T09:01:15.142Z,1.70
2019-03-10T09:02:20.653Z,1.80
2019-03-10T09:03:26.162Z,1.70
2019-03-10T09:04:31.675Z,1.70
2019-03-10T09:05:37.173Z,1.40
2019-03-10T09:06:44.618Z,1.50
2019-03-10T09:07:48.197Z,1.50
2019-03-10T09:08:53.713Z,1.50
2019-03-10T09:09:59.310Z,1.70
2019-03-10T09:11:04.717Z,1.50
2019-03-10T09:12:10.225Z,1.60
2019-03-10T09:13:15.737Z,1.70
2019-03-10T09:14:21.248Z,1.60
2019-03-10T09:15:26.754Z,1.70
2019-03-10T09:16:32.263Z,1.60
2019-03-10T09:17:37.772Z,1.70
2019-03-10T09:18:43.282Z,1.70
2019-03-10T09:19:48.791Z,1.80
2019-03-10T09:20:54.297Z,2.00
2019-03-10T09:22:00.325Z,2.10
2019-03-10T09:23:05.322Z,1.50
2019-03-10T09:24:10.834Z,2.00
2019-03-10T09:25:16.334Z,1.60
2019-03-10T09:26:21.848Z,1.80
2019-03-10T09:27:28.477Z,1.70
2019-03-10T09:28:32.862Z,1.70
2019-03-10T09:29:38.373Z,3.60
2019-03-10T09:30:43.878Z,2.00
2019-03-10T09:31:49.382Z,1.70
2019-03-10T09:32:54.898Z,1.70
2019-03-10T09:34:00.406Z,1.70
2019-03-10T09:35:05.921Z,1.70
2019-03-10T09:36:11.423Z,1.70
2019-03-10T09:37:16.934Z,1.90
2019-03-10T09:38:22.441Z,2.00
2019-03-10T09:39:27.949Z,1.80
2019-03-10T09:40:33.458Z,1.70
2019-03-10T09:41:38.965Z,2.20
2019-03-10T09:42:44.485Z,2.00
2019-03-10T09:43:49.983Z,1.90
2019-03-10T09:44:55.503Z,1.90
2019-03-10T09:46:01.018Z,1.80
2019-03-10T09:47:06.518Z,2.20
2019-03-10T09:48:12.022Z,2.20
2019-03-10T09:49:17.528Z,2.20
2019-03-10T09:50:23.042Z,2.20
2019-03-10T09:51:28.550Z,2.20
2019-03-10T09:52:34.055Z,2.20
2019-03-10T09:53:39.570Z,2.30
2019-03-10T09:54:45.081Z,2.30
2019-03-10T09:55:50.580Z,2.60
2019-03-10T09:56:56.092Z,2.40
2019-03-10T09:58:01.602Z,2.30
2019-03-10T09:59:07.108Z,2.30
2019-03-10T10:00:12.624Z,2.10
2019-03-10T10:01:18.125Z,2.20
2019-03-10T10:02:23.655Z,2.40
2019-03-10T10:03:29.147Z,2.30
2019-03-10T10:04:34.655Z,2.30
2019-03-10T10:05:40.168Z,2.50
2019-03-10T10:06:45.670Z,2.40
2019-03-10T10:07:51.179Z,2.70
2019-03-10T10:08:56.693Z,2.60
2019-03-10T10:10:02.202Z,2.40
2019-03-10T10:11:07.706Z,2.30
2019-03-10T10:12:13.891Z,2.70
2019-03-10T10:13:18.726Z,2.70
2019-03-10T10:14:24.237Z,2.90
2019-03-10T10:15:29.742Z,2.60
2019-03-10T10:16:35.248Z,3.00
2019-03-10T10:17:40.760Z,3.10
2019-03-10T10:18:46.275Z,3.00
2019-03-10T10:19:51.784Z,3.20
2019-03-10T10:20:57.292Z,3.20
2019-03-10T10:22:02.807Z,3.60
2019-03-10T10:23:08.306Z,3.50
2019-03-10T10:24:13.813Z,3.50
2019-03-10T10:25:19.319Z,3.60
2019-03-10T10:26:24.842Z,3.80
2019-03-10T10:27:30.340Z,4.00
2019-03-10T10:28:35.850Z,3.90
2019-03-10T10:29:41.361Z,4.40
2019-03-10T10:30:46.867Z,4.20
2019-03-10T10:31:52.378Z,4.40
2019-03-10T10:32:57.888Z,4.10
2019-03-10T10:34:03.396Z,4.10
2019-03-10T10:35:08.907Z,4.20
2019-03-10T10:36:14.423Z,4.30
2019-03-10T10:37:19.933Z,3.60
2019-03-10T10:38:25.454Z,3.80
2019-03-10T10:39:30.951Z,3.70
2019-03-10T10:40:36.454Z,3.90
2019-03-10T10:41:41.968Z,3.70
2019-03-10T10:42:47.472Z,3.40
2019-03-10T10:43:52.980Z,3.70
2019-03-10T10:44:58.489Z,3.40
2019-03-10T10:46:04.009Z,3.30
2019-03-10T10:47:09.510Z,3.40
2019-03-10T10:48:15.028Z,3.30
2019-03-10T10:49:20.530Z,3.30
2019-03-10T10:50:26.042Z,2.80
2019-03-10T10:51:31.551Z,3.00
2019-03-10T10:52:37.071Z,3.00
2019-03-10T10:53:42.568Z,2.90
2019-03-10T10:54:48.097Z,2.80
2019-03-10T10:55:53.596Z,3.00
2019-03-10T10:56:59.103Z,3.00
2019-03-10T10:58:05.616Z,2.80
2019-03-10T10:59:10.120Z,2.40
2019-03-10T11:00:15.626Z,2.40
2019-03-10T11:01:21.145Z,2.60
2019-03-10T11:02:26.645Z,2.30
2019-03-10T11:03:32.157Z,2.40
2019-03-10T11:04:37.670Z,2.60
2019-03-10T11:05:43.177Z,2.60
2019-03-10T11:06:48.690Z,2.40
2019-03-10T11:07:54.194Z,2.40
2019-03-10T11:08:59.706Z,2.40
2019-03-10T11:10:05.214Z,2.40
2019-03-10T11:11:10.736Z,2.40
2019-03-10T11:12:16.246Z,2.50
2019-03-10T11:13:21.805Z,2.40
2019-03-10T11:14:27.261Z,3.00
2019-03-10T11:15:32.767Z,2.40
2019-03-10T11:16:38.279Z,2.90
2019-03-10T11:17:43.786Z,2.70
2019-03-10T11:18:49.301Z,2.80
2019-03-10T11:19:54.808Z,2.70
2019-03-10T11:21:00.326Z,2.60
2019-03-10T11:22:05.845Z,2.80
2019-03-10T11:23:11.345Z,2.80
2019-03-10T11:24:16.853Z,2.70
2019-03-10T11:25:22.366Z,2.80
2019-03-10T11:26:27.879Z,2.80
2019-03-10T11:27:33.386Z,2.90
2019-03-10T11:28:38.895Z,2.70
2019-03-10T11:29:44.419Z,2.90
2019-03-10T11:30:49.918Z,3.10
2019-03-10T11:31:55.432Z,3.00
2019-03-10T11:33:00.943Z,3.30
2019-03-10T11:34:06.454Z,3.20
2019-03-10T11:35:11.976Z,3.10
2019-03-10T11:36:17.475Z,3.30
2019-03-10T11:37:22.982Z,2.90
2019-03-10T11:38:28.508Z,2.90
2019-03-10T11:39:34.006Z,2.90
2019-03-10T11:40:39.516Z,3.00
2019-03-10T11:41:45.026Z,2.90
2019-03-10T11:42:50.546Z,3.00
2019-03-10T11:43:56.053Z,3.10
2019-03-10T11:45:01.570Z,3.10
2019-03-10T11:46:07.076Z,2.70
2019-03-10T11:47:12.591Z,3.10
2019-03-10T11:48:18.093Z,3.00
2019-03-10T11:49:23.609Z,3.20
2019-03-10T11:50:29.123Z,3.50
2019-03-10T11:51:34.642Z,3.60
2019-03-10T11:52:40.147Z,3.20
2019-03-10T11:53:45.652Z,3.20
2019-03-10T11:54:51.168Z,3.30
2019-03-10T11:55:56.674Z,3.40
2019-03-10T11:57:02.189Z,2.90
2019-03-10T11:58:07.695Z,3.00
2019-03-10T11:59:13.210Z,3.10
2019-03-10T12:00:18.710Z,3.10
2019-03-10T12:01:24.238Z,3.20
2019-03-10T12:02:29.742Z,3.00
2019-03-10T12:03:35.255Z,3.10
2019-03-10T12:04:40.765Z,3.30
2019-03-10T12:05:46.279Z,3.00
2019-03-10T12:06:51.782Z,2.90
2019-03-10T12:07:57.294Z,2.90
2019-03-10T12:09:02.809Z,3.00
2019-03-10T12:10:08.321Z,2.90
2019-03-10T12:11:13.833Z,3.20
2019-03-10T12:12:19.347Z,2.80
2019-03-10T12:13:24.845Z,2.90
2019-03-10T12:14:30.369Z,3.00
2019-03-10T12:15:35.873Z,3.10
2019-03-10T12:16:41.395Z,2.90
2019-03-10T12:17:46.891Z,2.80
2019-03-10T12:18:52.396Z,3.20
2019-03-10T12:19:57.918Z,3.00
2019-03-10T12:21:03.429Z,3.50
2019-03-10T12:22:08.941Z,3.40
2019-03-10T12:23:14.447Z,3.20
2019-03-10T12:24:19.963Z,3.30
2019-03-10T12:25:25.478Z,3.70
2019-03-10T12:26:30.985Z,2.90
2019-03-10T12:27:36.513Z,3.20
2019-03-10T12:28:42.005Z,3.50
2019-03-10T12:29:47.522Z,3.90
2019-03-10T12:30:53.020Z,3.20
2019-03-10T12:31:58.531Z,3.00
2019-03-10T12:33:04.047Z,3.00
2019-03-10T12:34:09.557Z,3.00
2019-03-10T12:35:15.066Z,4.00
2019-03-10T12:36:20.577Z,4.10
2019-03-10T12:37:26.085Z,3.30
2019-03-10T12:38:31.596Z,3.50
2019-03-10T12:39:37.106Z,3.70
2019-03-10T12:40:42.617Z,3.90
2019-03-10T12:41:58.091Z,3.90
2019-03-10T12:42:53.642Z,3.60
2019-03-10T12:43:59.166Z,4.00
2019-03-10T12:45:04.659Z,3.50
2019-03-10T12:46:10.177Z,3.90
2019-03-10T12:47:15.677Z,4.00
2019-03-10T12:48:21.188Z,4.50
2019-03-10T12:49:26.699Z,4.00
2019-03-10T12:50:32.213Z,4.50
2019-03-10T12:51:37.734Z,4.20
2019-03-10T12:52:43.232Z,3.90
2019-03-10T12:53:48.751Z,4.10
2019-03-10T12:54:54.251Z,4.60
2019-03-10T12:55:59.770Z,4.70
2019-03-10T12:57:05.281Z,4.10
2019-03-10T12:58:10.783Z,4.30
2019-03-10T12:59:16.301Z,4.10
2019-03-10T13:00:21.815Z,4.00
2019-03-10T13:01:27.310Z,4.30
2019-03-10T13:02:32.829Z,3.70
2019-03-10T13:03:38.428Z,4.10
2019-03-10T13:04:43.845Z,3.80
2019-03-10T13:05:49.363Z,3.80
2019-03-10T13:06:54.870Z,4.10
2019-03-10T13:08:00.384Z,3.20
2019-03-10T13:09:05.893Z,3.50
2019-03-10T13:10:12.687Z,3.20
2019-03-10T13:11:16.909Z,2.70
2019-03-10T13:12:22.412Z,2.90
2019-03-10T13:13:27.930Z,2.60
2019-03-10T13:14:33.446Z,2.80
2019-03-10T13:15:38.950Z,3.10
2019-03-10T13:16:44.463Z,2.60
2019-03-10T13:17:49.969Z,2.60
2019-03-10T13:18:55.485Z,2.60
2019-03-10T13:20:00.992Z,2.70
2019-03-10T13:21:06.503Z,2.40
2019-03-10T13:22:12.014Z,2.30
2019-03-10T13:23:17.529Z,1.90
2019-03-10T13:24:23.035Z,2.00
2019-03-10T13:25:28.555Z,1.60
2019-03-10T13:26:34.063Z,2.10
2019-03-10T13:27:39.572Z,2.10
2019-03-10T13:28:45.077Z,1.90
2019-03-10T13:29:50.577Z,1.70
2019-03-10T13:30:56.090Z,2.00
2019-03-10T13:32:01.607Z,1.70
2019-03-10T13:33:07.117Z,1.60
2019-03-10T13:34:12.621Z,1.50
2019-03-10T13:35:18.145Z,1.90
2019-03-10T13:36:23.650Z,2.00
2019-03-10T13:37:29.158Z,2.00
2019-03-10T13:38:34.672Z,2.30
2019-03-10T13:39:40.180Z,2.80
2019-03-10T13:40:45.684Z,3.10
2019-03-10T13:41:51.197Z,3.30
2019-03-10T13:42:56.709Z,3.60
2019-03-10T13:44:02.219Z,3.80
2019-03-10T13:45:07.726Z,4.20
2019-03-10T13:46:13.237Z,4.20
2019-03-10T13:47:18.750Z,4.20
2019-03-10T13:48:24.260Z,4.60
2019-03-10T13:49:29.779Z,4.20
2019-03-10T13:50:35.281Z,4.70
2019-03-10T13:51:40.788Z,4.40
2019-03-10T13:52:46.296Z,4.00
2019-03-10T13:53:51.810Z,4.00
2019-03-10T13:54:57.320Z,4.40
2019-03-10T13:56:02.836Z,4.00
2019-03-10T13:57:08.366Z,4.50
2019-03-10T13:58:13.867Z,4.30
2019-03-10T13:59:19.368Z,4.60
2019-03-10T14:00:24.876Z,4.20
2019-03-10T14:01:30.384Z,4.30
2019-03-10T14:02:35.890Z,4.50
2019-03-10T14:03:41.425Z,4.30
2019-03-10T14:04:46.914Z,3.60
2019-03-10T14:05:52.425Z,3.80
2019-03-10T14:06:57.937Z,3.30
2019-03-10T14:08:03.450Z,3.00
2019-03-10T14:09:08.952Z,3.20
2019-03-10T14:10:14.471Z,2.90
2019-03-10T14:11:19.986Z,2.70
2019-03-10T14:12:25.487Z,2.30
2019-03-10T14:13:31.001Z,2.50
2019-03-10T14:14:36.512Z,2.30
2019-03-10T14:15:44.314Z,2.40
2019-03-10T14:16:47.537Z,2.30
2019-03-10T14:17:53.051Z,1.90
2019-03-10T14:18:58.553Z,1.70
2019-03-10T14:20:04.081Z,1.90
2019-03-10T14:21:09.576Z,2.10
2019-03-10T14:22:15.095Z,2.40
2019-03-10T14:23:20.606Z,2.30
2019-03-10T14:24:26.102Z,2.00
2019-03-10T14:25:31.619Z,2.20
2019-03-10T14:26:37.139Z,2.20
2019-03-10T14:27:42.640Z,2.30
2019-03-10T14:28:48.154Z,2.20
2019-03-10T14:29:53.669Z,2.20
2019-03-10T14:30:59.180Z,2.30
2019-03-10T14:32:04.692Z,2.20